Time;durP1;ratioP1;P1;durP2;ratioP2;P2;SDS_P1;SDS_P2;PMS_P1;PMS_P2;Temp;Humidity;BMP_temperature;BMP_pressure;BME280_temperature;BME280_humidity;BME280_pressure;Samples;Min_cycle;Max_cycle;Signal;HPM_P1;HPM_P2
2024/02/20 00:03:37;;;;;;;9.18;3.13;;;;;;;8.09;63.03;100911.75;10516581;28;20492;-59
2024/02/20 00:08:39;;;;;;;5.00;2.10;;;;;;;7.99;62.83;100914.69;10518931;28;20144;-60
2024/02/20 00:13:41;;;;;;;12.18;3.58;;;;;;;8.08;62.68;100908.31;10515489;28;20070;-59
2024/02/20 00:18:43;;;;;;;8.23;2.17;;;;;;;8.08;62.78;100899.66;10516502;28;20048;-59
2024/02/20 00:23:46;;;;;;;11.13;2.95;;;;;;;8.13;62.59;100913.41;10498206;28;20047;-59
2024/02/20 00:28:47;;;;;;;5.57;2.10;;;;;;;8.23;62.51;100899.13;10514981;28;20048;-59
2024/02/20 00:33:49;;;;;;;11.48;2.55;;;;;;;8.15;62.28;100899.41;10515016;28;20036;-59
2024/02/20 00:38:52;;;;;;;11.57;2.92;;;;;;;8.10;62.58;100896.09;10513403;28;20094;-59
2024/02/20 00:43:54;;;;;;;10.45;2.58;;;;;;;8.04;62.44;100907.56;10513219;28;20032;-59
2024/02/20 00:48:58;;;;;;;4.93;2.40;;;;;;;8.06;62.62;100909.28;10513490;28;20133;-59
2024/02/20 00:54:00;;;;;;;5.10;2.20;;;;;;;8.11;62.58;100915.19;10514272;28;20040;-59
2024/02/20 00:59:03;;;;;;;5.68;2.80;;;;;;;8.06;62.72;100919.69;10513953;28;20171;-59
2024/02/20 01:04:05;;;;;;;6.03;2.95;;;;;;;7.98;62.44;100918.19;10515095;28;20051;-59
2024/02/20 01:09:08;;;;;;;5.47;3.05;;;;;;;8.01;62.81;100927.66;10517951;28;20244;-59
2024/02/20 01:14:11;;;;;;;10.05;2.58;;;;;;;7.93;62.87;100922.72;10514379;28;20048;-59
2024/02/20 01:19:13;;;;;;;11.60;2.78;;;;;;;8.01;62.72;100922.44;10517382;28;20480;-59
2024/02/20 01:24:15;;;;;;;7.28;2.35;;;;;;;7.95;62.74;100927.88;10516750;28;20564;-59
2024/02/20 01:29:21;;;;;;;12.45;2.65;;;;;;;8.01;62.82;100938.94;10515194;28;20054;-59
2024/02/20 01:34:24;;;;;;;11.07;3.25;;;;;;;8.01;62.63;100930.28;10511901;28;20427;-59
2024/02/20 01:39:26;;;;;;;10.20;2.60;;;;;;;7.93;62.78;100940.09;10514883;28;20124;-59
2024/02/20 01:44:32;;;;;;;6.78;2.88;;;;;;;8.06;62.29;100945.75;10496300;28;20052;-59
2024/02/20 01:49:35;;;;;;;10.55;3.38;;;;;;;8.10;62.10;100942.13;10494380;28;20345;-59
2024/02/20 01:54:41;;;;;;;7.40;2.35;;;;;;;8.01;62.08;100940.69;10515179;28;20514;-59
2024/02/20 01:59:43;;;;;;;9.52;2.78;;;;;;;7.97;61.90;100942.56;10515934;28;20123;-59
2024/02/20 02:04:46;;;;;;;5.10;2.38;;;;;;;8.08;61.78;100942.16;10515302;28;20044;-60
2024/02/20 02:09:48;;;;;;;7.05;2.20;;;;;;;8.08;61.74;100947.38;10511632;28;20225;-59
2024/02/20 02:14:50;;;;;;;8.43;2.97;;;;;;;8.08;61.67;100946.56;10514393;28;20048;-59
2024/02/20 02:19:52;;;;;;;8.35;3.00;;;;;;;8.08;61.78;100956.97;10514097;28;20469;-60
2024/02/20 02:24:55;;;;;;;10.25;2.90;;;;;;;8.07;61.76;100963.94;10510460;28;20043;-61
2024/02/20 02:29:57;;;;;;;6.43;3.00;;;;;;;8.09;61.76;100958.66;10505033;28;20040;-60
2024/02/20 02:34:59;;;;;;;8.60;2.85;;;;;;;8.08;61.72;100965.63;10503726;28;20044;-61
2024/02/20 02:40:05;;;;;;;6.75;2.45;;;;;;;8.03;61.93;100963.19;10520684;28;20135;-60
2024/02/20 02:45:08;;;;;;;13.07;3.35;;;;;;;8.01;61.99;100977.16;10521358;28;20156;-61
2024/02/20 02:50:10;;;;;;;7.50;2.42;;;;;;;8.00;61.97;100986.72;10519976;28;20058;-60
2024/02/20 02:55:12;;;;;;;6.35;2.53;;;;;;;7.82;61.99;100989.91;10519429;28;20056;-61
2024/02/20 03:00:15;;;;;;;7.35;2.40;;;;;;;7.87;61.95;100993.25;10486809;28;20054;-60
2024/02/20 03:05:18;;;;;;;10.93;2.83;;;;;;;7.85;62.02;101002.00;10519774;28;20055;-60
2024/02/20 03:10:20;;;;;;;10.10;2.80;;;;;;;7.78;62.07;101001.31;10520103;28;20075;-60
2024/02/20 03:15:22;;;;;;;9.63;2.72;;;;;;;7.64;62.35;101007.84;10499846;28;20051;-60
2024/02/20 03:20:25;;;;;;;6.15;2.40;;;;;;;7.62;62.24;101007.91;10484978;28;20136;-60
2024/02/20 03:25:28;;;;;;;8.45;2.70;;;;;;;7.43;62.54;101016.31;10533524;28;20044;-60
2024/02/20 03:30:30;;;;;;;9.63;2.70;;;;;;;7.31;62.91;101020.13;10519874;28;20043;-60
2024/02/20 03:35:32;;;;;;;8.30;3.08;;;;;;;7.14;63.21;101018.00;10535363;28;20044;-60
2024/02/20 03:40:34;;;;;;;9.23;2.80;;;;;;;7.07;63.20;101026.03;10517394;28;20113;-60
2024/02/20 03:45:37;;;;;;;9.43;2.67;;;;;;;6.92;63.54;101029.03;10518046;28;20107;-60
2024/02/20 03:50:39;;;;;;;12.63;2.92;;;;;;;6.85;63.91;101024.94;10520280;28;20578;-60
2024/02/20 03:55:41;;;;;;;7.20;2.65;;;;;;;6.94;63.92;101037.66;10517255;28;20048;-60
2024/02/20 04:00:43;;;;;;;6.68;2.90;;;;;;;6.86;63.93;101037.00;10535102;28;20059;-61
2024/02/20 04:05:45;;;;;;;8.50;2.45;;;;;;;6.85;64.03;101033.59;10501484;28;20052;-61
2024/02/20 04:10:47;;;;;;;5.22;2.55;;;;;;;6.82;64.16;101032.78;10518934;28;20244;-60
2024/02/20 04:15:51;;;;;;;10.30;2.35;;;;;;;6.84;64.10;101041.41;10519187;28;20131;-61
2024/02/20 04:20:53;;;;;;;8.70;3.30;;;;;;;6.86;64.08;101043.06;10497253;28;20065;-61
2024/02/20 04:25:55;;;;;;;9.32;2.60;;;;;;;6.70;64.76;101043.53;10519149;28;20525;-61
2024/02/20 04:30:57;;;;;;;9.88;3.03;;;;;;;6.87;64.32;101054.34;10519319;28;20121;-60
2024/02/20 04:35:59;;;;;;;9.32;2.70;;;;;;;6.96;64.04;101060.13;10500630;28;20043;-60
2024/02/20 04:41:01;;;;;;;10.70;2.58;;;;;;;6.97;64.18;101067.06;10518482;28;20093;-60
2024/02/20 04:46:06;;;;;;;4.38;2.17;;;;;;;7.05;64.17;101075.50;10533941;28;20036;-61
2024/02/20 04:51:08;;;;;;;13.00;3.03;;;;;;;7.12;64.05;101079.63;10517383;28;20047;-60
2024/02/20 04:56:10;;;;;;;8.77;3.42;;;;;;;7.17;64.00;101079.50;10517184;28;20048;-61
2024/02/20 05:01:16;;;;;;;7.03;2.53;;;;;;;7.28;63.89;101087.88;10500411;28;20052;-60
2024/02/20 05:06:18;;;;;;;8.85;2.70;;;;;;;7.52;63.60;101084.56;10499873;28;20129;-60
2024/02/20 05:11:20;;;;;;;11.05;2.90;;;;;;;7.73;63.16;101090.91;10517437;28;20044;-60
2024/02/20 05:16:22;;;;;;;8.07;2.58;;;;;;;7.79;62.99;101086.34;10516863;28;20051;-61
2024/02/20 05:21:24;;;;;;;5.65;2.35;;;;;;;7.75;62.97;101081.31;10517686;28;20146;-60
2024/02/20 05:26:26;;;;;;;11.50;2.95;;;;;;;7.68;62.96;101087.56;10499216;28;20101;-61
2024/02/20 05:31:30;;;;;;;28.55;9.05;;;;;;;7.72;62.90;101084.84;10516356;28;20052;-61
2024/02/20 05:36:33;;;;;;;11.55;4.57;;;;;;;7.77;62.83;101087.31;10483806;28;20055;-61
2024/02/20 05:41:35;;;;;;;12.57;4.10;;;;;;;7.77;62.73;101093.34;10498539;28;20495;-57
2024/02/20 05:46:39;;;;;;;9.98;4.05;;;;;;;7.64;62.68;101094.63;10516318;28;20067;-59
2024/02/20 05:51:42;;;;;;;9.18;2.97;;;;;;;7.73;62.34;101096.94;10513413;28;20048;-59
2024/02/20 05:56:44;;;;;;;11.60;3.80;;;;;;;7.78;62.26;101108.09;10516203;28;20054;-59
2024/02/20 06:01:46;;;;;;;6.38;2.70;;;;;;;7.73;62.17;101096.94;10515881;28;20139;-59
2024/02/20 06:06:48;;;;;;;10.45;2.13;;;;;;;7.62;61.98;101106.84;10515358;28;20571;-60
2024/02/20 06:11:50;;;;;;;5.90;1.98;;;;;;;7.53;62.06;101103.66;10516177;28;20139;-60
2024/02/20 06:16:52;;;;;;;6.53;2.40;;;;;;;7.40;61.98;101108.34;10496462;28;20341;-60
2024/02/20 06:21:54;;;;;;;6.47;2.13;;;;;;;7.38;61.75;101112.75;10515924;28;20071;-59
2024/02/20 06:26:56;;;;;;;4.93;2.13;;;;;;;7.56;61.41;101114.84;10514905;28;20040;-59
2024/02/20 06:31:59;;;;;;;9.68;2.70;;;;;;;7.62;61.45;101111.19;10515264;28;20129;-59
2024/02/20 06:37:01;;;;;;;5.85;2.03;;;;;;;7.56;61.24;101114.84;10514612;28;20131;-59
2024/02/20 06:42:04;;;;;;;8.18;2.58;;;;;;;7.56;61.13;101124.38;10514393;28;20129;-58
2024/02/20 06:47:06;;;;;;;5.85;2.63;;;;;;;7.73;61.19;101115.19;10514830;28;20068;-59
2024/02/20 06:52:08;;;;;;;10.35;3.13;;;;;;;7.90;61.12;101114.69;10514599;28;20051;-59
2024/02/20 06:57:10;;;;;;;12.30;3.50;;;;;;;8.10;60.81;101127.13;10497393;28;20055;-59
2024/02/20 07:02:12;;;;;;;6.70;3.00;;;;;;;8.19;60.22;101137.28;10514469;28;20072;-59
2024/02/20 07:07:14;;;;;;;6.18;1.92;;;;;;;8.42;60.00;101140.03;10514820;28;20044;-59
2024/02/20 07:12:17;;;;;;;9.52;2.75;;;;;;;8.69;59.74;101137.38;10496721;28;20054;-59
2024/02/20 07:17:19;;;;;;;8.88;2.80;;;;;;;8.94;59.33;101139.16;10504625;28;20059;-59
2024/02/20 07:22:22;;;;;;;4.45;2.40;;;;;;;8.98;59.15;101151.19;10521609;28;20070;-59
2024/02/20 07:27:25;;;;;;;8.75;2.78;;;;;;;8.84;59.16;101155.13;10521217;28;20659;-59
2024/02/20 07:32:27;;;;;;;5.38;2.42;;;;;;;8.89;59.26;101144.56;10521262;28;20138;-59
2024/02/20 07:37:29;;;;;;;7.32;3.00;;;;;;;8.96;59.25;101158.22;10520912;28;20075;-59
2024/02/20 07:42:31;;;;;;;9.27;3.30;;;;;;;8.80;59.52;101152.69;10520820;28;20077;-59
2024/02/20 07:47:33;;;;;;;9.30;2.90;;;;;;;8.71;60.04;101152.97;10521095;28;20117;-59
2024/02/20 07:52:35;;;;;;;8.88;2.58;;;;;;;8.70;60.14;101159.97;10520674;28;20151;-59
2024/02/20 07:57:37;;;;;;;13.63;3.33;;;;;;;8.94;59.95;101154.81;10536773;27;20171;-60
2024/02/20 08:02:40;;;;;;;6.90;2.45;;;;;;;9.19;59.51;101156.56;10519549;28;20534;-60
2024/02/20 08:07:42;;;;;;;6.68;2.67;;;;;;;9.60;59.24;101155.09;10502438;28;20052;-60
2024/02/20 08:12:44;;;;;;;8.80;2.35;;;;;;;9.72;58.75;101161.66;10519890;28;20476;-60
2024/02/20 08:17:46;;;;;;;3.85;2.33;;;;;;;9.76;58.76;101161.47;10519291;28;20048;-60
2024/02/20 08:22:48;;;;;;;8.85;2.28;;;;;;;9.64;58.51;101170.59;10519167;28;20820;-60
2024/02/20 08:27:51;;;;;;;7.25;1.88;;;;;;;9.53;58.80;101166.66;10519111;28;20333;-59
2024/02/20 08:32:53;;;;;;;6.22;2.47;;;;;;;9.64;58.88;101167.13;10518625;28;20083;-60
2024/02/20 08:37:56;;;;;;;6.05;2.50;;;;;;;9.50;58.98;101166.78;10500997;28;20055;-60
2024/02/20 08:42:58;;;;;;;7.13;2.92;;;;;;;9.49;58.92;101172.88;10517939;28;20813;-60
2024/02/20 08:48:01;;;;;;;9.23;3.00;;;;;;;9.22;58.56;101179.09;10534296;28;20391;-59
2024/02/20 08:53:10;;;;;;;7.78;2.50;;;;;;;9.15;58.95;101186.28;10533658;28;20055;-60
2024/02/20 08:58:12;;;;;;;8.00;2.45;;;;;;;9.01;59.30;101185.03;10512300;28;20052;-59
2024/02/20 09:03:14;;;;;;;6.00;2.00;;;;;;;9.07;58.86;101198.72;10517603;28;20130;-60
2024/02/20 09:08:16;;;;;;;5.80;2.47;;;;;;;9.29;58.86;101197.09;10500021;28;20048;-60
2024/02/20 09:13:18;;;;;;;6.55;2.80;;;;;;;9.54;58.06;101197.91;10499333;28;20093;-59
2024/02/20 09:18:20;;;;;;;6.70;2.38;;;;;;;10.00;57.80;101201.50;10517352;28;20084;-59
2024/02/20 09:23:22;;;;;;;6.35;2.10;;;;;;;10.41;56.69;101200.81;10516576;28;20455;-59
2024/02/20 09:28:24;;;;;;;6.55;2.03;;;;;;;10.72;56.25;101200.44;10516743;28;20113;-59
2024/02/20 09:33:28;;;;;;;6.35;1.48;;;;;;;10.92;55.67;101196.09;10515726;28;20135;-60
2024/02/20 09:38:31;;;;;;;8.38;2.30;;;;;;;10.84;55.55;101198.19;10498980;28;20075;-59
2024/02/20 09:43:33;;;;;;;6.38;1.70;;;;;;;10.96;55.09;101192.44;10516618;28;20095;-60
2024/02/20 09:48:35;;;;;;;6.10;1.73;;;;;;;10.98;54.04;101198.47;10482133;28;20052;-59
2024/02/20 09:53:39;;;;;;;7.75;2.13;;;;;;;10.61;54.62;101205.25;10515916;28;20054;-60
2024/02/20 09:58:41;;;;;;;6.15;1.80;;;;;;;10.73;54.70;101197.75;10516235;28;20043;-59
2024/02/20 10:03:47;;;;;;;3.88;1.75;;;;;;;10.77;53.88;101204.56;10515407;28;20051;-60
2024/02/20 10:08:54;;;;;;;4.32;1.50;;;;;;;10.59;53.92;101220.16;10472753;28;20397;-59
2024/02/20 10:13:57;;;;;;;5.43;1.65;;;;;;;10.52;54.52;101212.53;10472430;28;20212;-60
2024/02/20 10:19:01;;;;;;;6.43;1.80;;;;;;;10.56;54.10;101218.53;10473789;28;20440;-60
2024/02/20 10:24:06;;;;;;;9.25;3.25;;;;;;;10.90;53.87;101210.16;10473586;28;20040;-60
2024/02/20 10:29:17;;;;;;;7.15;2.83;;;;;;;10.98;53.32;101206.31;10474011;28;20056;-59
2024/02/20 10:34:20;;;;;;;4.45;2.20;;;;;;;11.05;53.25;101191.25;10469880;28;20523;-60
2024/02/20 10:39:24;;;;;;;5.93;2.00;;;;;;;10.90;52.26;101190.09;10473320;28;20129;-59
2024/02/20 10:44:29;;;;;;;7.30;2.25;;;;;;;10.97;52.96;101191.53;10473223;28;20305;-59
2024/02/20 10:49:33;;;;;;;4.13;1.95;;;;;;;11.01;52.29;101193.09;10475702;28;20129;-59
2024/02/20 10:54:38;;;;;;;2.92;1.40;;;;;;;11.28;52.33;101184.13;10478243;28;20044;-52
2024/02/20 10:59:51;;;;;;;5.20;1.30;;;;;;;11.49;51.70;101181.47;10476566;28;20451;-52
2024/02/20 11:04:54;;;;;;;4.97;1.92;;;;;;;11.61;51.70;101173.94;10475948;28;20750;-54
2024/02/20 11:10:08;;;;;;;10.27;2.10;;;;;;;11.39;51.11;101167.09;10510756;28;20063;-54
2024/02/20 11:15:17;;;;;;;5.75;1.85;;;;;;;11.52;51.92;101163.84;10519225;28;20408;-53
2024/02/20 11:20:21;;;;;;;6.15;1.50;;;;;;;11.77;51.24;101154.00;10502617;28;20052;-55
2024/02/20 11:25:28;;;;;;;7.20;2.05;;;;;;;11.65;50.39;101151.06;10520412;28;20044;-55
2024/02/20 11:30:30;;;;;;;3.85;1.38;;;;;;;11.72;50.63;101144.66;10519697;28;20310;-50
2024/02/20 11:35:33;;;;;;;5.10;1.60;;;;;;;11.81;50.70;101149.44;10520199;28;20126;-56
2024/02/20 11:40:40;;;;;;;9.93;3.00;;;;;;;11.88;50.77;101135.16;10518898;28;20389;-51
2024/02/20 11:45:43;;;;;;;6.60;2.45;;;;;;;11.69;50.75;101126.41;10520373;28;20480;-53
2024/02/20 11:50:45;;;;;;;6.68;1.58;;;;;;;11.53;50.92;101122.78;10502482;28;20052;-56
2024/02/20 11:55:49;;;;;;;4.88;1.67;;;;;;;11.41;50.64;101110.25;10520697;28;20062;-56
2024/02/20 12:01:02;;;;;;;8.30;2.03;;;;;;;11.51;51.03;101117.63;10520282;28;20052;-55
2024/02/20 12:06:09;;;;;;;4.82;1.60;;;;;;;11.57;51.02;101113.88;10519834;28;20047;-54
2024/02/20 12:11:20;;;;;;;5.82;2.10;;;;;;;11.73;50.93;101104.41;10535592;28;20146;-55
2024/02/20 12:16:26;;;;;;;5.25;1.70;;;;;;;11.92;50.70;101094.78;10519846;28;20044;-54
2024/02/20 12:21:31;;;;;;;9.00;1.98;;;;;;;11.84;51.13;101086.41;10519711;28;20028;-55
2024/02/20 12:26:34;;;;;;;5.50;1.88;;;;;;;11.68;51.16;101081.00;10501667;28;20098;-55
2024/02/20 12:31:36;;;;;;;5.15;1.77;;;;;;;11.92;50.91;101082.53;10519107;28;20590;-53
2024/02/20 12:36:38;;;;;;;4.97;2.47;;;;;;;11.68;51.17;101080.19;10519393;28;20048;-55
2024/02/20 12:41:40;;;;;;;7.85;2.28;;;;;;;11.58;50.84;101071.88;10518732;28;20576;-55
2024/02/20 12:46:42;;;;;;;9.30;2.40;;;;;;;11.57;51.09;101062.34;10518447;28;20446;-55
2024/02/20 12:51:45;;;;;;;14.27;2.75;;;;;;;11.47;50.99;101062.81;10518710;28;20051;-54
2024/02/20 12:56:48;;;;;;;9.63;2.42;;;;;;;11.43;50.91;101056.03;10517770;28;20411;-55
2024/02/20 13:01:50;;;;;;;13.75;3.05;;;;;;;11.25;51.46;101042.00;10518317;28;20124;-54
2024/02/20 13:06:53;;;;;;;6.35;1.73;;;;;;;11.34;51.47;101032.88;10517308;28;20056;-56
2024/02/20 13:12:04;;;;;;;7.47;2.92;;;;;;;11.16;51.49;101034.53;10516621;28;20396;-55
2024/02/20 13:17:06;;;;;;;;;;;;;;;11.23;50.47;101044.66;10517836;28;20052;-53
2024/02/20 13:22:08;;;;;;;3.63;1.80;;;;;;;11.11;51.31;101041.75;10518200;28;19920;-55
2024/02/20 13:27:11;;;;;;;7.00;2.22;;;;;;;11.04;51.75;101046.41;10516933;28;20273;-55
2024/02/20 13:32:13;;;;;;;8.57;2.50;;;;;;;11.04;51.67;101059.50;10516841;28;20591;-55
2024/02/20 13:37:15;;;;;;;8.48;2.10;;;;;;;11.08;50.63;101053.22;10516699;28;20576;-54
2024/02/20 13:42:17;;;;;;;8.95;2.55;;;;;;;11.22;51.46;101056.06;10499186;28;20044;-55
2024/02/20 13:47:19;;;;;;;6.15;2.28;;;;;;;11.39;50.86;101049.22;10516555;28;20492;-56
2024/02/20 13:52:26;;;;;;;5.60;2.22;;;;;;;11.57;50.47;101041.38;10516817;28;20044;-56
2024/02/20 13:57:29;;;;;;;4.70;2.28;;;;;;;11.59;50.46;101029.06;10516158;28;20085;-56
2024/02/20 14:02:31;;;;;;;7.72;2.70;;;;;;;11.90;49.59;101018.84;10516304;28;20051;-54
2024/02/20 14:07:33;;;;;;;6.40;2.33;;;;;;;11.74;50.24;101007.38;10515421;28;20859;-53
2024/02/20 14:12:35;;;;;;;6.00;1.70;;;;;;;11.62;50.30;101007.94;10515509;28;20506;-53
2024/02/20 14:17:38;;;;;;;6.07;2.40;;;;;;;11.75;50.05;101002.97;10515489;28;20115;-55
2024/02/20 14:22:41;;;;;;;7.55;2.30;;;;;;;11.63;49.93;101000.94;10499351;28;20036;-55
2024/02/20 14:27:44;;;;;;;5.95;1.83;;;;;;;11.32;50.28;100998.06;10524219;28;20507;-55
2024/02/20 14:32:47;;;;;;;7.13;2.30;;;;;;;11.05;50.21;100997.53;10524174;28;20489;-51
2024/02/20 14:37:49;;;;;;;7.28;2.38;;;;;;;11.04;50.57;100996.69;10523597;28;20507;-54
2024/02/20 14:42:51;;;;;;;11.38;3.13;;;;;;;11.08;50.56;100998.25;10523682;28;20405;-54
2024/02/20 14:47:53;;;;;;;4.18;2.03;;;;;;;11.13;50.67;100984.94;10506483;28;20287;-51
2024/02/20 14:52:56;;;;;;;6.15;2.38;;;;;;;11.18;50.57;100983.81;10538511;28;20217;-56
2024/02/20 14:57:59;;;;;;;8.48;2.63;;;;;;;10.99;50.54;100979.44;10523316;28;20500;-56
2024/02/20 15:03:02;;;;;;;9.50;1.83;;;;;;;10.81;50.91;100986.34;10523182;28;20136;-54
2024/02/20 15:08:04;;;;;;;4.85;1.92;;;;;;;10.55;50.97;100997.09;10522450;28;20051;-54
2024/02/20 15:13:07;;;;;;;8.05;2.33;;;;;;;10.43;51.15;100979.31;10522429;28;20052;-56
2024/02/20 15:18:09;;;;;;;3.03;1.50;;;;;;;10.28;51.42;100986.03;10522465;28;20048;-55
2024/02/20 15:23:12;;;;;;;7.43;1.83;;;;;;;10.29;51.62;100973.81;10521861;28;20048;-54
2024/02/20 15:28:14;;;;;;;4.35;2.00;;;;;;;10.38;51.56;100974.25;10503610;28;20093;-54
2024/02/20 15:33:16;;;;;;;7.70;2.47;;;;;;;10.36;51.50;100972.63;10521505;28;20044;-53
2024/02/20 15:38:18;;;;;;;6.35;2.67;;;;;;;10.32;51.50;100968.44;10520902;28;20556;-56
2024/02/20 15:43:21;;;;;;;3.80;2.08;;;;;;;10.31;51.98;100956.28;10503354;28;20131;-50
2024/02/20 15:48:24;;;;;;;6.68;2.28;;;;;;;10.32;51.91;100963.19;10536570;28;20126;-55
2024/02/20 15:53:26;;;;;;;4.65;1.90;;;;;;;10.23;52.12;100946.16;10486264;28;20048;-54
2024/02/20 15:58:29;;;;;;;4.90;2.15;;;;;;;10.15;52.11;100943.03;10502630;28;20466;-56
2024/02/20 16:03:31;;;;;;;5.72;2.38;;;;;;;10.12;52.91;100934.44;10520151;28;20058;-55
2024/02/20 16:08:35;;;;;;;4.80;2.42;;;;;;;9.99;52.78;100935.88;10502240;28;20040;-56
2024/02/20 16:13:37;;;;;;;7.50;2.13;;;;;;;9.92;52.96;100929.19;10502706;28;20400;-56
2024/02/20 16:18:41;;;;;;;5.85;2.55;;;;;;;9.92;53.13;100919.59;10518516;28;20075;-53
2024/02/20 16:23:43;;;;;;;5.13;2.28;;;;;;;9.86;53.17;100925.06;10501809;28;20047;-53
2024/02/20 16:28:46;;;;;;;4.00;1.88;;;;;;;9.68;53.43;100933.66;10484871;28;20055;-56
2024/02/20 16:33:50;;;;;;;8.13;2.28;;;;;;;9.76;53.87;100928.97;10519827;28;20048;-54
2024/02/20 16:38:52;;;;;;;5.85;2.08;;;;;;;9.79;53.53;100918.38;10519270;28;20052;-51
2024/02/20 16:43:54;;;;;;;5.55;1.80;;;;;;;9.60;53.88;100917.41;10518247;28;20044;-55
2024/02/20 16:48:56;;;;;;;4.20;2.10;;;;;;;9.47;54.34;100919.66;10500533;28;20048;-55
2024/02/20 16:53:59;;;;;;;5.75;2.33;;;;;;;9.49;54.00;100919.59;10517793;28;20066;-53
2024/02/20 16:59:01;;;;;;;5.53;1.80;;;;;;;9.42;54.05;100916.38;10516799;28;20127;-53
2024/02/20 17:04:03;;;;;;;5.38;2.08;;;;;;;9.25;54.14;100916.19;10518725;28;20155;-57
2024/02/20 17:09:08;;;;;;;4.88;2.20;;;;;;;9.26;54.29;100917.88;10517921;28;20475;-52
2024/02/20 17:14:13;;;;;;;5.75;2.15;;;;;;;9.19;54.12;100924.25;10500316;28;20480;-55
2024/02/20 17:19:15;;;;;;;5.85;2.17;;;;;;;9.18;54.19;100929.56;10516209;28;20127;-56
2024/02/20 17:24:18;;;;;;;6.38;2.08;;;;;;;9.10;54.23;100928.97;10516215;28;20059;-56
2024/02/20 17:29:20;;;;;;;8.30;3.38;;;;;;;9.04;54.29;100937.03;10515879;28;20758;-57
2024/02/20 17:34:22;;;;;;;5.20;2.28;;;;;;;9.03;54.42;100940.56;10516796;28;20048;-55
2024/02/20 17:39:29;;;;;;;7.57;2.53;;;;;;;9.13;54.66;100945.38;10496646;28;20055;-55
2024/02/20 17:44:31;;;;;;;5.47;1.80;;;;;;;9.13;54.33;100942.75;10516173;28;20048;-56
2024/02/20 17:49:36;;;;;;;8.23;2.45;;;;;;;9.19;54.77;100950.38;10516403;28;20048;-55
2024/02/20 17:54:38;;;;;;;6.18;2.30;;;;;;;9.13;54.39;100947.97;10515093;28;20422;-55
2024/02/20 17:59:43;;;;;;;7.07;2.47;;;;;;;9.17;54.32;100941.75;10514405;28;20055;-56
2024/02/20 18:04:45;;;;;;;5.68;2.20;;;;;;;9.27;54.28;100937.00;10513388;28;20132;-55
2024/02/20 18:09:47;;;;;;;4.43;2.70;;;;;;;9.37;54.19;100935.75;10515238;28;20048;-54
2024/02/20 18:14:51;;;;;;;7.35;2.90;;;;;;;9.38;54.00;100953.13;10508880;28;20050;-56
2024/02/20 18:19:54;;;;;;;5.05;2.03;;;;;;;9.36;53.93;100940.09;10530925;28;20488;-55
2024/02/20 18:24:57;;;;;;;4.75;1.80;;;;;;;9.32;53.97;100928.09;10513583;28;20675;-50
2024/02/20 18:29:59;;;;;;;5.80;2.17;;;;;;;9.16;53.96;100939.16;10493429;28;20105;-55
2024/02/20 18:35:03;;;;;;;5.60;1.70;;;;;;;9.07;54.12;100940.38;10514454;28;20043;-54
2024/02/20 18:40:09;;;;;;;6.68;2.10;;;;;;;9.04;54.19;100942.25;10513875;28;20164;-51
2024/02/20 18:45:11;;;;;;;3.88;1.85;;;;;;;8.93;54.30;100941.81;10513184;28;20480;-54
2024/02/20 18:50:14;;;;;;;8.13;2.97;;;;;;;8.95;54.48;100937.38;10511795;28;20147;-55
2024/02/20 18:55:17;;;;;;;5.97;2.78;;;;;;;9.03;54.33;100936.19;10513751;28;20043;-56
2024/02/20 19:00:19;;;;;;;7.28;1.85;;;;;;;9.10;54.25;100935.03;10493698;28;20044;-56
2024/02/20 19:05:22;;;;;;;2.83;1.65;;;;;;;9.00;54.24;100928.47;10513956;28;20170;-54
2024/02/20 19:10:24;;;;;;;5.65;1.98;;;;;;;8.84;54.55;100916.91;10515766;28;20088;-54
2024/02/20 19:15:26;;;;;;;9.90;3.35;;;;;;;8.79;54.69;100918.84;10521383;28;20484;-55
2024/02/20 19:20:28;;;;;;;7.32;2.38;;;;;;;8.87;54.49;100923.78;10520433;28;20043;-52
2024/02/20 19:25:31;;;;;;;8.88;2.67;;;;;;;8.75;54.64;100930.28;10498667;28;20044;-53
2024/02/20 19:30:34;;;;;;;6.32;2.10;;;;;;;8.67;54.91;100927.09;10520466;28;20040;-55
2024/02/20 19:35:39;;;;;;;4.85;1.80;;;;;;;8.52;55.04;100919.84;10520101;28;20040;-55
2024/02/20 19:40:42;;;;;;;5.32;1.55;;;;;;;8.48;55.17;100916.50;10503430;28;20125;-55
2024/02/20 19:45:45;;;;;;;7.78;2.53;;;;;;;8.56;55.02;100904.03;10503911;28;20056;-55
2024/02/20 19:50:47;;;;;;;2.55;1.50;;;;;;;8.55;55.25;100893.63;10503520;28;20079;-55
2024/02/20 19:55:49;;;;;;;3.97;1.80;;;;;;;8.44;55.36;100903.63;10502460;28;20044;-54
2024/02/20 20:00:51;;;;;;;5.00;1.40;;;;;;;8.39;55.46;100908.97;10520216;28;20518;-55
2024/02/20 20:05:53;;;;;;;5.28;2.25;;;;;;;8.37;55.39;100899.50;10520310;28;20478;-50
2024/02/20 20:10:55;;;;;;;5.68;2.25;;;;;;;8.32;55.58;100891.88;10519911;28;20140;-52
2024/02/20 20:15:57;;;;;;;6.88;2.20;;;;;;;8.31;55.61;100897.13;10519515;28;20064;-55
2024/02/20 20:20:59;;;;;;;4.93;1.65;;;;;;;8.26;55.54;100892.06;10519144;28;20118;-56
2024/02/20 20:26:01;;;;;;;7.22;2.63;;;;;;;8.30;55.61;100900.66;10519037;28;20040;-55
2024/02/20 20:31:04;;;;;;;5.82;2.28;;;;;;;8.31;55.62;100904.94;10534840;27;20072;-56
2024/02/20 20:36:06;;;;;;;7.80;2.72;;;;;;;8.27;55.78;100892.91;10518479;28;20487;-55
2024/02/20 20:41:08;;;;;;;7.70;2.42;;;;;;;8.37;55.75;100902.13;10519054;28;20060;-53
2024/02/20 20:46:10;;;;;;;4.80;1.88;;;;;;;8.38;55.67;100888.19;10517990;28;20067;-54
2024/02/20 20:51:12;;;;;;;4.45;1.75;;;;;;;8.42;55.57;100889.78;10517396;28;20060;-52
2024/02/20 20:56:14;;;;;;;8.05;2.10;;;;;;;8.54;55.67;100878.91;10515053;28;20084;-55
2024/02/20 21:01:16;;;;;;;4.70;2.40;;;;;;;8.54;55.59;100886.72;10516886;28;20536;-56
2024/02/20 21:06:19;;;;;;;4.82;1.70;;;;;;;8.54;55.64;100878.91;10513406;28;20428;-56
2024/02/20 21:11:21;;;;;;;7.50;2.08;;;;;;;8.50;55.55;100883.41;10517388;28;20055;-54
2024/02/20 21:16:24;;;;;;;7.15;2.80;;;;;;;8.36;56.03;100877.84;10498476;28;20509;-55
2024/02/20 21:21:26;;;;;;;9.32;2.22;;;;;;;8.37;55.93;100882.13;10500194;28;20222;-54
2024/02/20 21:26:28;;;;;;;7.20;2.33;;;;;;;8.25;56.53;100886.91;10516829;28;20097;-55
2024/02/20 21:31:30;;;;;;;10.05;2.85;;;;;;;8.27;56.94;100875.53;10516274;28;20091;-54
2024/02/20 21:36:33;;;;;;;9.73;2.58;;;;;;;8.36;56.68;100879.56;10511633;28;20093;-56
2024/02/20 21:41:38;;;;;;;5.20;2.53;;;;;;;8.28;56.88;100871.19;10516434;28;20145;-53
2024/02/20 21:46:40;;;;;;;7.03;2.28;;;;;;;8.38;56.70;100864.75;10494498;28;20577;-53
2024/02/20 21:51:42;;;;;;;11.85;3.40;;;;;;;8.38;56.77;100862.13;10492158;28;20075;-55
2024/02/20 21:56:45;;;;;;;11.95;2.55;;;;;;;8.25;57.34;100855.63;10510537;28;20097;-55
2024/02/20 22:01:48;;;;;;;7.53;2.90;;;;;;;8.22;57.41;100853.97;10530089;27;20055;-56
2024/02/20 22:06:50;;;;;;;6.18;2.70;;;;;;;8.17;57.80;100857.66;10514050;28;20051;-55
2024/02/20 22:11:53;;;;;;;8.68;2.85;;;;;;;8.28;57.48;100858.97;10512086;28;20052;-56
2024/02/20 22:16:55;;;;;;;6.50;2.28;;;;;;;8.29;57.56;100845.06;10493931;28;20048;-53
2024/02/20 22:21:58;;;;;;;8.55;2.47;;;;;;;8.28;57.78;100840.75;10514076;28;20044;-51
2024/02/20 22:27:00;;;;;;;9.10;2.78;;;;;;;8.45;57.60;100853.16;10495506;28;20158;-54
2024/02/20 22:32:02;;;;;;;6.30;2.50;;;;;;;8.36;58.78;100859.59;10515029;28;20048;-56
2024/02/20 22:37:05;;;;;;;5.85;2.63;;;;;;;8.13;60.69;100866.50;10497541;28;20419;-55
2024/02/20 22:42:07;;;;;;;8.18;3.15;;;;;;;8.03;60.50;100856.38;10513187;28;20043;-51
2024/02/20 22:47:09;;;;;;;6.80;3.13;;;;;;;7.96;60.91;100854.00;10518268;28;20125;-54
2024/02/20 22:52:11;;;;;;;11.05;3.03;;;;;;;8.02;60.64;100840.78;10521950;28;20047;-53
2024/02/20 22:57:13;;;;;;;4.97;2.55;;;;;;;8.06;60.79;100831.13;10521821;28;20513;-51
2024/02/20 23:02:16;;;;;;;5.63;2.63;;;;;;;8.14;60.73;100822.13;10522428;28;20883;-53
2024/02/20 23:07:18;;;;;;;4.40;2.13;;;;;;;8.09;60.76;100803.19;10521751;28;20048;-54
2024/02/20 23:12:21;;;;;;;8.38;2.45;;;;;;;8.12;60.62;100790.09;10488349;28;20044;-52
2024/02/20 23:17:23;;;;;;;8.55;3.28;;;;;;;8.03;60.91;100793.00;10504422;28;20708;-53
2024/02/20 23:22:25;;;;;;;8.65;3.00;;;;;;;8.03;60.69;100779.97;10521175;28;20424;-55